MÉTÉO QUÉBEC version 2 détaillée est disponible à meteoquebec.com/template/

Sites météorologiques /Documentations/ Programmes:

Météo Québec
Site web version 2
Modèle de Meteotemplate

CoCoRaHS Canada
Station CAN-QC-39

METEOTEMPLATE
SITE MÉTÉO

Météo Basses-Laurentides, Qc

Météo Breakeyville, Qc

Météo Chaudière-Appalaches, Qc

Météo Chicoutimi, Qc

Météo Fredericton, N-B

Météo Haut-Richelieu, Qc

Météo Kamouraska, Qc

Météo Lanaudière, Qc

Météo Matane, Qc

Météo Montréal, Qc

Météo Mt St-Hilaire, Qc

Météo Outaouais, Qc

Météo Rimouski, Qc

Météo Ste-Famille, Qc

Météo St-Hyacinthe, Qc

Météo St-Laurent, Mtl

Météo St-Léonard, Mtl

Météo St-Hubert, Mtl

Météo St-Pascal, Qc

Météo Vaudreuil, Mtl

Météo Alerte Québec

Météo Centre

État des routes
Québec 511

Québec en Alerte

Orage Québec

Québec Vortex
chasseurs de tempêtes

Hydro Météo (info-rivière)

Avalanche Québec

Agrométéo Québec

Bulletin des agriculteurs secteur Québec

Réseau Météo-Québec

Réseau Météo des Provinces Atlantiques

Réseau Météo Ontario

Séismes Canada
l'Est du Canada

Fire Smoke Canada

Canwarn Québec

Climat Québec

Environnement Canada

MétéoMédia

Leuven Template

Réseau de transport de la Capitale (RTC)



Aucun avertissement, veille ou avis en vigueur en ce moment

Rapports METAR

   
CYQB - QUEBEC
Mise à jour: 28.01.2020 18:30
Partiellement Nuageux  
Partiellement Nuageux  
   Vent: ENE 7.4 km/h
Vent: ENE 7.4 km/h
Température: -5°C
Refroidissement éolien: -8°C
Point de rosée: -8°C
Humidité relative: 80%
Baromètre: 1011.9 hPa
Nuageux: Partiellement Nuageux
visibilité: 24.1 km
Détails des nuages: Partiellement Nuageux 426.7 m,
Partiellement Nuageux 883.9 m
CYQB 282330Z 06004KT 15SM BKN014 BKN029 M05/M08 A2988 RMK SC5SC2 SLP126
CYRQ - TROIS-RIVIERES
Mise à jour: 28.01.2020 18:00
Dégagé  
Dégagé  
   Vent: calme
Vent: calme
Température: -7°C
Point de rosée: -10°C
Humidité relative: 79%
Baromètre: 1012.5 hPa
Nuageux: Dégagé
visibilité: 14.5 km
Détails des nuages: Dégagé
CYRQ 282300Z AUTO 00000KT 9SM CLR M07/M10 A2990 RMK SLP131
CYGP - SHERBROOKE
Mise à jour: 28.01.2020 18:00
Nuageux  
Nuageux  
   Vent: NO 9.3 km/h
Vent: NO 9.3 km/h
Température: -7°C
Refroidissement éolien: -12°C
Point de rosée: -10°C
Humidité relative: 79%
Baromètre: 1007.8 hPa
Nuageux: Nuageux
visibilité: 24.1 km
Détails des nuages: Nuageux 457.2 m
CYGP 282300Z 31005KT 230V340 15SM OVC015 M07/M10 A2976 RMK SC8 SLP082
CYUL - MONTREAL
Mise à jour: 28.01.2020 18:37
Nearby Showers  
Nearby Showers  
   Vent: Ouest 16.7 km/h
Vent: Ouest 16.7 km/h
visibilité: 24.1 km
CYUL 282337Z 28009KT 15SM VCSH BKN030 M02/M06 A2992 RMK SC7 SHSN S-SW SLP134
CYND - GATINEAU
Mise à jour: 28.01.2020 18:00
Partiellement Nuageux  
Partiellement Nuageux  
   Vent: NNO 9.3 km/h
Vent: NNO 9.3 km/h
Température: -4°C
Refroidissement éolien: -8°C
Point de rosée: -8°C
Humidité relative: 74%
Baromètre: 1014.9 hPa
Nuageux: Partiellement Nuageux
visibilité: 24.1 km
Détails des nuages: Partiellement Nuageux 579.1 m
CYND 282300Z 34005KT 310V020 15SM BKN019 M04/M08 A2997 RMK SC6 SLP154
CYOW - OTTAWA
Mise à jour: 28.01.2020 18:00
Nuageux  
Nuageux  
   Vent: NNO 24.1 km/h<br />Gust to 24.1 km/h
Vent: NNO 24.1 km/h
Gust to 24.1 km/h
Température: -4°C
Refroidissement éolien: -11°C
Point de rosée: -8°C
Humidité relative: 74%
Baromètre: 1014.6 hPa
Nuageux: Nuageux
visibilité: 24.1 km
Détails des nuages: Partiellement Nuageux 426.7 m,
Nuageux 640.1 m
CYOW 282300Z 34013G18KT 15SM BKN014 OVC021 M04/M08 A2996 RMK SC7SC1 SLP153
CYGK - KINGSTON
Mise à jour: 28.01.2020 18:16
Faible neige  
Faible neige  
   Vent: North 14.8 km/h
Vent: North 14.8 km/h
visibilité: 24.1 km
CYGK 282316Z 35008KT 15SM -SN OVC022 M04/M08 A2998 RMK SC8 SLP158
CYYZ - TORONTO
Mise à jour: 28.01.2020 18:08
Light Showers, Neige  
Light Showers, Neige  
   Vent: NNO 9.3 km/h
Vent: NNO 9.3 km/h
visibilité: 24.1 km
CYYZ 282308Z 34005KT 270V080 15SM -SHSN FEW021 OVC032 00/M04 A2999 RMK CU1SC7 SLP164
CYYY - MONT-JOLI
Mise à jour: 28.01.2020 18:00
Dégagé  
Dégagé  
   Vent: Sud 7.4 km/h
Vent: Sud 7.4 km/h
Température: -14°C
Refroidissement éolien: -19°C
Point de rosée: -16°C
Humidité relative: 85%
Baromètre: 1010.5 hPa
Nuageux: Dégagé
visibilité: 48.3 km
Détails des nuages: Dégagé
CYYY 282300Z 17004KT 30SM SKC M14/M16 A2984 RMK SLP112
CWZS - AMQUI
Mise à jour: 08.07.2019 18:00
PAS actuel
  
  
   Vent: SSO 7.4 km/h
Vent: SSO 7.4 km/h
Température: 15°C
Point de rosée: 13°C
Humidité relative: 88%
CWZS 082200Z AUTO 20004KT 15/13 RMK AO1 SLP080 T01490131 50015
CWRZ - CHANDLER
Mise à jour: 28.01.2020 18:00
  
  
   Vent: North 18.5 km/h<br />Gust to 18.5 km/h
Vent: North 18.5 km/h
Gust to 18.5 km/h
CWRZ 282300Z AUTO 36010G15KT RMK AO1 PK WND 01019/2225 51019
CYGP - GASPE
Mise à jour: 28.01.2020 18:00
Nuageux  
Nuageux  
   Vent: NO 9.3 km/h
Vent: NO 9.3 km/h
Température: -7°C
Refroidissement éolien: -12°C
Point de rosée: -10°C
Humidité relative: 79%
Baromètre: 1007.8 hPa
Nuageux: Nuageux
visibilité: 24.1 km
Détails des nuages: Nuageux 457.2 m
CYGP 282300Z 31005KT 230V340 15SM OVC015 M07/M10 A2976 RMK SC8 SLP082
CYBX - BLANC-SABLON
Mise à jour: 28.01.2020 18:00
Faible neige  
Faible neige  
   Vent: NNE 13 km/h
Vent: NNE 13 km/h
visibilité: 24.1 km
CYBX 282300Z 03007KT 15SM -SN OVC036 M09/M12 A2966 RMK SC8 SLP050
CYAD - BAIE-JAMES
Mise à jour: 30.10.2015 16:00
PAS actuel
Light Showers, Neige  
Light Showers, Neige  
   Vent: NO 20.4 km/h<br />Gust to 20.4 km/h
Vent: NO 20.4 km/h
Gust to 20.4 km/h
visibilité: 9.7 km
CYAD 302000Z 31011G17KT 6SM -SHSN OVC012 M02/M04 A2968 RMK SC7 LAST OBS/NEXT 021200 UTC SLP066
CYMT - CHIBOUGAMAU
Mise à jour: 28.01.2020 18:00
Dégagé  
Dégagé  
   Vent: NO 7.4 km/h
Vent: NO 7.4 km/h
Température: -13°C
Refroidissement éolien: -18°C
Point de rosée: -17°C
Humidité relative: 72%
Baromètre: 1013.5 hPa
Nuageux: Dégagé
visibilité: 14.5 km
Détails des nuages: Dégagé
CYMT 282300Z AUTO 31004KT 9SM CLR M13/M17 A2993 RMK SLP176
CYGR - ILES-DE-LA-MADELEINE
Mise à jour: 28.01.2020 18:00
  
  
   Vent: calme
Vent: calme
CYGR 282300Z CCA 03019KT 10SM -SN OVC011 M02/M04 A2960 RMK SC8 SLP027
CWBY - PORT-MENIER
Mise à jour: 28.01.2020 18:00
  
  
   Vent: NO 5.6 km/h
Vent: NO 5.6 km/h
Température: -14°C
Refroidissement éolien: -18°C
Point de rosée: -16°C
Humidité relative: 85%
CWBY 282300Z AUTO 31003KT M14/M16 RMK AO1 SOG 31 0002 SLP076 T11391155
CYZV - SEPT-ILES
Mise à jour: 28.01.2020 18:00
Dégagé  
Dégagé  
   Vent: North 11.1 km/h
Vent: North 11.1 km/h
Température: -11°C
Refroidissement éolien: -17°C
Point de rosée: -16°C
Humidité relative: 67%
Baromètre: 1008.8 hPa
Nuageux: Dégagé
visibilité: 24.1 km
Détails des nuages: Dégagé
CYZV 282300Z 35006KT 15SM SKC M11/M16 A2979 RMK SLP093

Script développé par  Saratoga-weather.org Adapté pour le modèle par  Weerstation Leuven

Vous trouverez nos données via:

Weather Underground

Équipements et logiciels que nous utilisons:

Station de Météo
Davis VP2

Programme Météo
Weather Display

Ordinateur Météo
Asus/Intel

Provider
Rapidenet Canada

Davis VP2

Weather Display

Asus/Intel

Rapidenet Canada